sensor_id;sensor_type;location;lat;lon;timestamp;temperature;humidity
23827;DHT22;12094;50.822;4.376;2023-09-12T00:00:50;22.90;99.90
23827;DHT22;12094;50.822;4.376;2023-09-12T00:03:22;22.90;99.90
23827;DHT22;12094;50.822;4.376;2023-09-12T00:05:57;22.90;99.90
23827;DHT22;12094;50.822;4.376;2023-09-12T00:08:25;22.90;99.90
23827;DHT22;12094;50.822;4.376;2023-09-12T00:11:02;23.00;99.90
23827;DHT22;12094;50.822;4.376;2023-09-12T00:13:31;22.90;99.90
23827;DHT22;12094;50.822;4.376;2023-09-12T00:15:59;22.90;99.90
23827;DHT22;12094;50.822;4.376;2023-09-12T00:18:26;22.70;99.90
23827;DHT22;12094;50.822;4.376;2023-09-12T00:20:54;22.60;99.90
23827;DHT22;12094;50.822;4.376;2023-09-12T00:23:21;22.60;99.90
23827;DHT22;12094;50.822;4.376;2023-09-12T00:25:50;22.30;99.90
23827;DHT22;12094;50.822;4.376;2023-09-12T00:28:22;22.20;99.90
23827;DHT22;12094;50.822;4.376;2023-09-12T00:30:52;22.00;99.90
23827;DHT22;12094;50.822;4.376;2023-09-12T00:33:19;21.90;99.90
23827;DHT22;12094;50.822;4.376;2023-09-12T00:35:47;21.80;99.90
23827;DHT22;12094;50.822;4.376;2023-09-12T00:38:15;21.80;99.90
23827;DHT22;12094;50.822;4.376;2023-09-12T00:40:42;21.90;99.90
23827;DHT22;12094;50.822;4.376;2023-09-12T00:43:09;22.00;99.90
23827;DHT22;12094;50.822;4.376;2023-09-12T00:45:37;21.80;99.90
23827;DHT22;12094;50.822;4.376;2023-09-12T00:48:06;21.80;99.90
23827;DHT22;12094;50.822;4.376;2023-09-12T00:50:36;21.70;99.90
23827;DHT22;12094;50.822;4.376;2023-09-12T00:53:04;21.70;99.90
23827;DHT22;12094;50.822;4.376;2023-09-12T00:55:32;21.60;99.90
23827;DHT22;12094;50.822;4.376;2023-09-12T00:58:01;21.60;99.90
23827;DHT22;12094;50.822;4.376;2023-09-12T01:00:29;21.50;99.90
23827;DHT22;12094;50.822;4.376;2023-09-12T01:02:58;21.40;99.90
23827;DHT22;12094;50.822;4.376;2023-09-12T01:05:26;21.30;99.90
23827;DHT22;12094;50.822;4.376;2023-09-12T01:07:54;21.30;99.90
23827;DHT22;12094;50.822;4.376;2023-09-12T01:10:22;21.30;99.90
23827;DHT22;12094;50.822;4.376;2023-09-12T01:12:50;21.40;99.90
23827;DHT22;12094;50.822;4.376;2023-09-12T01:15:17;21.30;99.90
23827;DHT22;12094;50.822;4.376;2023-09-12T01:17:46;21.30;99.90
23827;DHT22;12094;50.822;4.376;2023-09-12T01:20:31;21.30;99.90
23827;DHT22;12094;50.822;4.376;2023-09-12T01:26:17;21.10;99.90
23827;DHT22;12094;50.822;4.376;2023-09-12T01:28:55;21.10;99.90
23827;DHT22;12094;50.822;4.376;2023-09-12T01:31:23;21.10;99.90
23827;DHT22;12094;50.822;4.376;2023-09-12T01:33:55;21.10;99.90
23827;DHT22;12094;50.822;4.376;2023-09-12T01:36:23;21.00;99.90
23827;DHT22;12094;50.822;4.376;2023-09-12T01:38:50;20.90;99.90
23827;DHT22;12094;50.822;4.376;2023-09-12T01:41:19;20.90;99.90
23827;DHT22;12094;50.822;4.376;2023-09-12T01:43:47;21.00;99.90
23827;DHT22;12094;50.822;4.376;2023-09-12T01:46:17;21.00;99.90
23827;DHT22;12094;50.822;4.376;2023-09-12T01:48:46;21.20;99.90
23827;DHT22;12094;50.822;4.376;2023-09-12T01:51:19;21.30;99.90
23827;DHT22;12094;50.822;4.376;2023-09-12T01:53:47;21.30;99.90
23827;DHT22;12094;50.822;4.376;2023-09-12T01:56:15;21.50;99.90
23827;DHT22;12094;50.822;4.376;2023-09-12T01:58:44;21.50;99.90
23827;DHT22;12094;50.822;4.376;2023-09-12T02:01:11;21.60;99.90
23827;DHT22;12094;50.822;4.376;2023-09-12T02:03:38;21.50;99.90
23827;DHT22;12094;50.822;4.376;2023-09-12T02:06:06;21.30;99.90
23827;DHT22;12094;50.822;4.376;2023-09-12T02:08:33;21.20;99.90
23827;DHT22;12094;50.822;4.376;2023-09-12T02:11:01;21.30;99.90
23827;DHT22;12094;50.822;4.376;2023-09-12T02:13:29;21.40;99.90
23827;DHT22;12094;50.822;4.376;2023-09-12T02:16:00;21.50;99.90
23827;DHT22;12094;50.822;4.376;2023-09-12T02:18:28;21.60;99.90
23827;DHT22;12094;50.822;4.376;2023-09-12T02:20:57;21.60;99.90
23827;DHT22;12094;50.822;4.376;2023-09-12T02:23:27;21.70;99.90
23827;DHT22;12094;50.822;4.376;2023-09-12T02:25:54;21.60;99.90
23827;DHT22;12094;50.822;4.376;2023-09-12T02:28:22;21.50;99.90
23827;DHT22;12094;50.822;4.376;2023-09-12T02:30:49;21.50;99.90
23827;DHT22;12094;50.822;4.376;2023-09-12T02:33:16;21.50;99.90
23827;DHT22;12094;50.822;4.376;2023-09-12T02:35:43;21.50;99.90
23827;DHT22;12094;50.822;4.376;2023-09-12T02:38:10;21.50;99.90
23827;DHT22;12094;50.822;4.376;2023-09-12T02:40:37;21.70;99.90
23827;DHT22;12094;50.822;4.376;2023-09-12T02:43:05;21.80;99.90
23827;DHT22;12094;50.822;4.376;2023-09-12T02:45:32;21.80;99.90
23827;DHT22;12094;50.822;4.376;2023-09-12T02:48:00;21.80;99.90
23827;DHT22;12094;50.822;4.376;2023-09-12T02:50:27;21.80;99.90
23827;DHT22;12094;50.822;4.376;2023-09-12T02:52:57;21.70;99.90
23827;DHT22;12094;50.822;4.376;2023-09-12T02:55:24;21.50;99.90
23827;DHT22;12094;50.822;4.376;2023-09-12T02:57:52;21.40;99.90
23827;DHT22;12094;50.822;4.376;2023-09-12T03:00:20;21.30;99.90
23827;DHT22;12094;50.822;4.376;2023-09-12T03:02:49;21.10;99.90
23827;DHT22;12094;50.822;4.376;2023-09-12T03:05:17;21.10;99.90
23827;DHT22;12094;50.822;4.376;2023-09-12T03:07:44;21.10;99.90
23827;DHT22;12094;50.822;4.376;2023-09-12T03:10:12;21.20;99.90
23827;DHT22;12094;50.822;4.376;2023-09-12T03:12:40;21.30;99.90
23827;DHT22;12094;50.822;4.376;2023-09-12T03:15:08;21.40;99.90
23827;DHT22;12094;50.822;4.376;2023-09-12T03:17:37;21.40;99.90
23827;DHT22;12094;50.822;4.376;2023-09-12T03:20:05;21.40;99.90
23827;DHT22;12094;50.822;4.376;2023-09-12T03:22:37;21.50;99.90
23827;DHT22;12094;50.822;4.376;2023-09-12T03:25:06;21.50;99.90
23827;DHT22;12094;50.822;4.376;2023-09-12T03:27:33;21.60;99.90
23827;DHT22;12094;50.822;4.376;2023-09-12T03:30:00;21.60;99.90
23827;DHT22;12094;50.822;4.376;2023-09-12T03:32:28;21.60;99.90
23827;DHT22;12094;50.822;4.376;2023-09-12T03:34:55;21.70;99.90
23827;DHT22;12094;50.822;4.376;2023-09-12T03:37:23;21.70;99.90
23827;DHT22;12094;50.822;4.376;2023-09-12T03:39:54;21.50;99.90
23827;DHT22;12094;50.822;4.376;2023-09-12T03:42:21;21.50;99.90
23827;DHT22;12094;50.822;4.376;2023-09-12T03:44:48;21.60;99.90
23827;DHT22;12094;50.822;4.376;2023-09-12T03:47:17;21.70;99.90
23827;DHT22;12094;50.822;4.376;2023-09-12T03:49:45;21.70;99.90
23827;DHT22;12094;50.822;4.376;2023-09-12T03:52:13;21.70;99.90
23827;DHT22;12094;50.822;4.376;2023-09-12T03:54:40;21.70;99.90
23827;DHT22;12094;50.822;4.376;2023-09-12T03:57:09;21.70;99.90
23827;DHT22;12094;50.822;4.376;2023-09-12T03:59:37;21.70;99.90
23827;DHT22;12094;50.822;4.376;2023-09-12T04:02:04;21.60;99.90
23827;DHT22;12094;50.822;4.376;2023-09-12T04:04:34;21.70;99.90
23827;DHT22;12094;50.822;4.376;2023-09-12T04:07:02;21.80;99.90
23827;DHT22;12094;50.822;4.376;2023-09-12T04:09:30;21.80;99.90
23827;DHT22;12094;50.822;4.376;2023-09-12T04:11:58;21.80;99.90
23827;DHT22;12094;50.822;4.376;2023-09-12T04:14:26;21.80;99.90
23827;DHT22;12094;50.822;4.376;2023-09-12T04:16:53;21.80;99.90
23827;DHT22;12094;50.822;4.376;2023-09-12T04:19:24;21.80;99.90
23827;DHT22;12094;50.822;4.376;2023-09-12T04:21:51;21.80;99.90
23827;DHT22;12094;50.822;4.376;2023-09-12T04:24:18;21.80;99.90
23827;DHT22;12094;50.822;4.376;2023-09-12T04:26:46;21.80;99.90
23827;DHT22;12094;50.822;4.376;2023-09-12T04:29:13;21.80;99.90
23827;DHT22;12094;50.822;4.376;2023-09-12T04:31:40;21.70;99.90
23827;DHT22;12094;50.822;4.376;2023-09-12T04:34:08;21.60;99.90
23827;DHT22;12094;50.822;4.376;2023-09-12T04:36:39;21.70;99.90
23827;DHT22;12094;50.822;4.376;2023-09-12T04:39:06;21.70;99.90
23827;DHT22;12094;50.822;4.376;2023-09-12T04:41:33;21.80;99.90
23827;DHT22;12094;50.822;4.376;2023-09-12T04:44:00;21.80;99.90
23827;DHT22;12094;50.822;4.376;2023-09-12T04:46:29;21.60;99.90
23827;DHT22;12094;50.822;4.376;2023-09-12T04:48:57;21.60;99.90
23827;DHT22;12094;50.822;4.376;2023-09-12T04:51:24;21.60;99.90
23827;DHT22;12094;50.822;4.376;2023-09-12T04:53:53;21.60;99.90
23827;DHT22;12094;50.822;4.376;2023-09-12T04:56:21;21.40;99.90
23827;DHT22;12094;50.822;4.376;2023-09-12T04:58:51;21.30;99.90
23827;DHT22;12094;50.822;4.376;2023-09-12T05:01:18;21.20;99.90
23827;DHT22;12094;50.822;4.376;2023-09-12T05:03:46;21.20;99.90
23827;DHT22;12094;50.822;4.376;2023-09-12T05:06:13;21.30;99.90
23827;DHT22;12094;50.822;4.376;2023-09-12T05:08:43;21.30;99.90
23827;DHT22;12094;50.822;4.376;2023-09-12T05:11:11;21.20;99.90
23827;DHT22;12094;50.822;4.376;2023-09-12T05:13:40;21.10;99.90
23827;DHT22;12094;50.822;4.376;2023-09-12T05:16:08;21.00;99.90
23827;DHT22;12094;50.822;4.376;2023-09-12T05:18:36;20.80;99.90
23827;DHT22;12094;50.822;4.376;2023-09-12T05:21:03;20.80;99.90
23827;DHT22;12094;50.822;4.376;2023-09-12T05:23:31;20.70;99.90
23827;DHT22;12094;50.822;4.376;2023-09-12T05:26:03;20.70;99.90
23827;DHT22;12094;50.822;4.376;2023-09-12T05:28:30;20.80;99.90
23827;DHT22;12094;50.822;4.376;2023-09-12T05:30:58;20.80;99.90
23827;DHT22;12094;50.822;4.376;2023-09-12T05:33:25;20.70;99.90
23827;DHT22;12094;50.822;4.376;2023-09-12T05:35:52;20.70;99.90
23827;DHT22;12094;50.822;4.376;2023-09-12T05:38:19;20.60;99.90
23827;DHT22;12094;50.822;4.376;2023-09-12T05:40:48;20.50;99.90
23827;DHT22;12094;50.822;4.376;2023-09-12T05:43:17;20.50;99.90
23827;DHT22;12094;50.822;4.376;2023-09-12T05:45:44;20.40;99.90
23827;DHT22;12094;50.822;4.376;2023-09-12T05:48:13;20.40;99.90
23827;DHT22;12094;50.822;4.376;2023-09-12T05:50:40;20.40;99.90
23827;DHT22;12094;50.822;4.376;2023-09-12T05:53:08;20.40;99.90
23827;DHT22;12094;50.822;4.376;2023-09-12T05:55:37;20.30;99.90
23827;DHT22;12094;50.822;4.376;2023-09-12T05:58:04;20.30;99.90
23827;DHT22;12094;50.822;4.376;2023-09-12T06:00:34;20.30;99.90
23827;DHT22;12094;50.822;4.376;2023-09-12T06:03:02;20.40;99.90
23827;DHT22;12094;50.822;4.376;2023-09-12T06:05:32;20.40;99.90
23827;DHT22;12094;50.822;4.376;2023-09-12T06:07:59;20.40;99.90
23827;DHT22;12094;50.822;4.376;2023-09-12T06:10:26;20.40;99.90
23827;DHT22;12094;50.822;4.376;2023-09-12T06:12:54;20.50;99.90
23827;DHT22;12094;50.822;4.376;2023-09-12T06:15:22;20.70;99.90
23827;DHT22;12094;50.822;4.376;2023-09-12T06:17:49;20.80;99.90
23827;DHT22;12094;50.822;4.376;2023-09-12T06:20:16;20.90;99.90
23827;DHT22;12094;50.822;4.376;2023-09-12T06:22:43;21.00;99.90
23827;DHT22;12094;50.822;4.376;2023-09-12T06:25:10;21.00;99.90
23827;DHT22;12094;50.822;4.376;2023-09-12T06:27:37;20.90;99.90
23827;DHT22;12094;50.822;4.376;2023-09-12T06:30:09;21.00;99.90
23827;DHT22;12094;50.822;4.376;2023-09-12T06:32:36;21.00;99.90
23827;DHT22;12094;50.822;4.376;2023-09-12T06:35:05;21.10;99.90
23827;DHT22;12094;50.822;4.376;2023-09-12T06:37:33;21.40;99.90
23827;DHT22;12094;50.822;4.376;2023-09-12T06:40:03;21.40;99.90
23827;DHT22;12094;50.822;4.376;2023-09-12T06:42:30;21.50;99.90
23827;DHT22;12094;50.822;4.376;2023-09-12T06:44:57;21.60;99.90
23827;DHT22;12094;50.822;4.376;2023-09-12T06:47:25;21.80;99.90
23827;DHT22;12094;50.822;4.376;2023-09-12T06:49:52;21.90;99.90
23827;DHT22;12094;50.822;4.376;2023-09-12T06:52:23;22.10;99.90
23827;DHT22;12094;50.822;4.376;2023-09-12T06:54:50;22.20;99.90
23827;DHT22;12094;50.822;4.376;2023-09-12T06:57:17;22.30;99.90
23827;DHT22;12094;50.822;4.376;2023-09-12T06:59:44;22.00;99.90
23827;DHT22;12094;50.822;4.376;2023-09-12T07:02:11;21.70;99.90
23827;DHT22;12094;50.822;4.376;2023-09-12T07:04:39;21.80;99.90
23827;DHT22;12094;50.822;4.376;2023-09-12T07:07:06;21.90;99.90
23827;DHT22;12094;50.822;4.376;2023-09-12T07:09:33;22.00;99.90
23827;DHT22;12094;50.822;4.376;2023-09-12T07:12:00;22.20;99.90
23827;DHT22;12094;50.822;4.376;2023-09-12T07:14:27;22.40;99.90
23827;DHT22;12094;50.822;4.376;2023-09-12T07:16:56;22.50;99.90
23827;DHT22;12094;50.822;4.376;2023-09-12T07:19:23;22.60;99.90
23827;DHT22;12094;50.822;4.376;2023-09-12T07:21:51;22.70;99.90
23827;DHT22;12094;50.822;4.376;2023-09-12T07:24:19;22.90;99.90
23827;DHT22;12094;50.822;4.376;2023-09-12T07:26:47;22.80;99.90
23827;DHT22;12094;50.822;4.376;2023-09-12T07:29:16;22.80;99.90
23827;DHT22;12094;50.822;4.376;2023-09-12T07:31:43;22.90;99.90
23827;DHT22;12094;50.822;4.376;2023-09-12T07:34:10;22.70;99.90
23827;DHT22;12094;50.822;4.376;2023-09-12T07:36:39;22.40;99.90
23827;DHT22;12094;50.822;4.376;2023-09-12T07:39:06;22.10;99.90
23827;DHT22;12094;50.822;4.376;2023-09-12T07:41:34;22.20;99.90
23827;DHT22;12094;50.822;4.376;2023-09-12T07:44:01;22.40;99.90
23827;DHT22;12094;50.822;4.376;2023-09-12T07:46:31;22.70;99.90
23827;DHT22;12094;50.822;4.376;2023-09-12T07:48:58;22.80;99.90
23827;DHT22;12094;50.822;4.376;2023-09-12T07:51:26;23.10;99.90
23827;DHT22;12094;50.822;4.376;2023-09-12T07:53:54;23.30;99.90
23827;DHT22;12094;50.822;4.376;2023-09-12T07:56:21;23.30;99.90
23827;DHT22;12094;50.822;4.376;2023-09-12T07:58:48;23.30;99.90
23827;DHT22;12094;50.822;4.376;2023-09-12T08:01:16;23.30;99.90
23827;DHT22;12094;50.822;4.376;2023-09-12T08:03:45;23.00;99.90
23827;DHT22;12094;50.822;4.376;2023-09-12T08:06:13;22.80;99.90
23827;DHT22;12094;50.822;4.376;2023-09-12T08:08:40;23.10;99.90
23827;DHT22;12094;50.822;4.376;2023-09-12T08:11:10;23.10;99.90
23827;DHT22;12094;50.822;4.376;2023-09-12T08:13:37;23.30;99.90
23827;DHT22;12094;50.822;4.376;2023-09-12T08:16:04;23.30;99.90
23827;DHT22;12094;50.822;4.376;2023-09-12T08:18:31;23.60;99.90
23827;DHT22;12094;50.822;4.376;2023-09-12T08:20:59;23.60;99.90
23827;DHT22;12094;50.822;4.376;2023-09-12T08:23:26;23.60;99.90
23827;DHT22;12094;50.822;4.376;2023-09-12T08:25:53;23.60;99.90
23827;DHT22;12094;50.822;4.376;2023-09-12T08:28:20;23.60;99.90
23827;DHT22;12094;50.822;4.376;2023-09-12T08:30:47;23.60;99.90
23827;DHT22;12094;50.822;4.376;2023-09-12T08:33:16;23.30;99.90
23827;DHT22;12094;50.822;4.376;2023-09-12T08:35:45;23.20;99.90
23827;DHT22;12094;50.822;4.376;2023-09-12T08:38:11;23.30;99.90
23827;DHT22;12094;50.822;4.376;2023-09-12T08:40:38;23.10;99.90
23827;DHT22;12094;50.822;4.376;2023-09-12T08:43:06;22.90;99.90
23827;DHT22;12094;50.822;4.376;2023-09-12T08:45:35;23.00;99.90
23827;DHT22;12094;50.822;4.376;2023-09-12T08:48:03;23.10;99.90
23827;DHT22;12094;50.822;4.376;2023-09-12T08:50:31;22.90;99.90
23827;DHT22;12094;50.822;4.376;2023-09-12T08:53:00;23.00;99.90
23827;DHT22;12094;50.822;4.376;2023-09-12T08:55:34;23.20;99.90
23827;DHT22;12094;50.822;4.376;2023-09-12T08:58:04;23.60;99.90
23827;DHT22;12094;50.822;4.376;2023-09-12T09:00:31;23.80;99.90
23827;DHT22;12094;50.822;4.376;2023-09-12T09:02:59;24.00;99.90
23827;DHT22;12094;50.822;4.376;2023-09-12T09:05:27;24.00;99.90
23827;DHT22;12094;50.822;4.376;2023-09-12T09:07:56;24.20;99.90
23827;DHT22;12094;50.822;4.376;2023-09-12T09:10:23;23.70;99.90
23827;DHT22;12094;50.822;4.376;2023-09-12T09:13:12;23.80;99.90
23827;DHT22;12094;50.822;4.376;2023-09-12T09:15:42;23.90;99.90
23827;DHT22;12094;50.822;4.376;2023-09-12T09:18:09;23.70;99.90
23827;DHT22;12094;50.822;4.376;2023-09-12T09:20:39;23.40;99.90
23827;DHT22;12094;50.822;4.376;2023-09-12T09:23:10;23.40;99.90
23827;DHT22;12094;50.822;4.376;2023-09-12T09:25:43;23.40;99.90
23827;DHT22;12094;50.822;4.376;2023-09-12T09:28:24;23.50;99.90
23827;DHT22;12094;50.822;4.376;2023-09-12T09:30:52;23.70;99.90
23827;DHT22;12094;50.822;4.376;2023-09-12T09:33:22;23.80;99.90
23827;DHT22;12094;50.822;4.376;2023-09-12T09:35:49;23.70;99.90
23827;DHT22;12094;50.822;4.376;2023-09-12T09:38:22;23.80;99.90
23827;DHT22;12094;50.822;4.376;2023-09-12T09:40:49;24.00;99.90
23827;DHT22;12094;50.822;4.376;2023-09-12T09:43:21;24.20;99.90
23827;DHT22;12094;50.822;4.376;2023-09-12T09:45:48;24.50;99.90
23827;DHT22;12094;50.822;4.376;2023-09-12T09:48:24;24.90;99.90
23827;DHT22;12094;50.822;4.376;2023-09-12T09:51:02;25.20;99.90
23827;DHT22;12094;50.822;4.376;2023-09-12T09:53:30;25.10;99.90
23827;DHT22;12094;50.822;4.376;2023-09-12T09:56:14;25.00;99.90
23827;DHT22;12094;50.822;4.376;2023-09-12T09:58:57;25.10;99.90
23827;DHT22;12094;50.822;4.376;2023-09-12T10:01:30;25.10;99.90
23827;DHT22;12094;50.822;4.376;2023-09-12T10:03:59;25.00;99.90
23827;DHT22;12094;50.822;4.376;2023-09-12T10:06:28;25.10;99.90
23827;DHT22;12094;50.822;4.376;2023-09-12T10:08:58;25.20;99.90
23827;DHT22;12094;50.822;4.376;2023-09-12T10:11:28;25.30;99.90
23827;DHT22;12094;50.822;4.376;2023-09-12T10:13:56;25.30;99.90
23827;DHT22;12094;50.822;4.376;2023-09-12T10:16:29;25.40;99.90
23827;DHT22;12094;50.822;4.376;2023-09-12T10:19:09;25.30;99.90
23827;DHT22;12094;50.822;4.376;2023-09-12T10:21:52;25.00;99.90
23827;DHT22;12094;50.822;4.376;2023-09-12T10:24:23;24.90;99.90
23827;DHT22;12094;50.822;4.376;2023-09-12T10:26:52;24.90;99.90
23827;DHT22;12094;50.822;4.376;2023-09-12T10:29:21;25.00;99.90
23827;DHT22;12094;50.822;4.376;2023-09-12T10:31:49;25.20;99.90
23827;DHT22;12094;50.822;4.376;2023-09-12T10:34:17;25.40;99.90
23827;DHT22;12094;50.822;4.376;2023-09-12T10:36:45;25.60;99.90
23827;DHT22;12094;50.822;4.376;2023-09-12T10:39:14;25.70;99.90
23827;DHT22;12094;50.822;4.376;2023-09-12T10:41:42;25.80;99.90
23827;DHT22;12094;50.822;4.376;2023-09-12T10:44:14;25.90;99.90
23827;DHT22;12094;50.822;4.376;2023-09-12T10:46:44;26.00;99.90
23827;DHT22;12094;50.822;4.376;2023-09-12T10:49:14;26.00;99.90
23827;DHT22;12094;50.822;4.376;2023-09-12T10:51:44;25.80;99.90
23827;DHT22;12094;50.822;4.376;2023-09-12T10:54:25;25.90;99.90
23827;DHT22;12094;50.822;4.376;2023-09-12T10:57:07;26.10;99.90
23827;DHT22;12094;50.822;4.376;2023-09-12T10:59:35;26.20;99.90
23827;DHT22;12094;50.822;4.376;2023-09-12T11:04:56;26.50;99.90
23827;DHT22;12094;50.822;4.376;2023-09-12T11:10:26;26.10;99.90
23827;DHT22;12094;50.822;4.376;2023-09-12T11:12:55;26.60;99.90
23827;DHT22;12094;50.822;4.376;2023-09-12T11:15:28;27.30;99.90
23827;DHT22;12094;50.822;4.376;2023-09-12T11:18:02;28.30;99.90
23827;DHT22;12094;50.822;4.376;2023-09-12T11:23:19;30.00;99.90
23827;DHT22;12094;50.822;4.376;2023-09-12T11:25:47;30.30;99.90
23827;DHT22;12094;50.822;4.376;2023-09-12T11:28:19;29.90;99.90
23827;DHT22;12094;50.822;4.376;2023-09-12T11:30:57;29.60;99.90
23827;DHT22;12094;50.822;4.376;2023-09-12T11:33:25;29.60;99.90
23827;DHT22;12094;50.822;4.376;2023-09-12T11:35:54;29.80;99.90
23827;DHT22;12094;50.822;4.376;2023-09-12T11:38:27;29.70;99.90
23827;DHT22;12094;50.822;4.376;2023-09-12T11:40:55;29.80;99.90
23827;DHT22;12094;50.822;4.376;2023-09-12T11:43:24;30.00;99.90
23827;DHT22;12094;50.822;4.376;2023-09-12T11:45:54;30.30;99.90
23827;DHT22;12094;50.822;4.376;2023-09-12T11:48:25;30.60;99.90
23827;DHT22;12094;50.822;4.376;2023-09-12T11:51:00;31.10;99.90
23827;DHT22;12094;50.822;4.376;2023-09-12T11:53:29;31.50;99.90
23827;DHT22;12094;50.822;4.376;2023-09-12T11:56:33;30.80;99.90
23827;DHT22;12094;50.822;4.376;2023-09-12T12:03:27;28.90;99.90
23827;DHT22;12094;50.822;4.376;2023-09-12T12:09:47;27.70;99.90
23827;DHT22;12094;50.822;4.376;2023-09-12T12:12:21;27.40;99.90
23827;DHT22;12094;50.822;4.376;2023-09-12T12:14:54;27.60;99.90
23827;DHT22;12094;50.822;4.376;2023-09-12T12:17:24;27.70;99.90
23827;DHT22;12094;50.822;4.376;2023-09-12T12:23:31;28.60;99.90
23827;DHT22;12094;50.822;4.376;2023-09-12T12:29:26;30.20;99.90
23827;DHT22;12094;50.822;4.376;2023-09-12T12:32:02;30.60;99.90
23827;DHT22;12094;50.822;4.376;2023-09-12T12:39:25;29.20;99.90
23827;DHT22;12094;50.822;4.376;2023-09-12T12:41:56;28.00;99.90
23827;DHT22;12094;50.822;4.376;2023-09-12T12:44:41;27.40;99.90
23827;DHT22;12094;50.822;4.376;2023-09-12T12:47:13;27.20;99.90
23827;DHT22;12094;50.822;4.376;2023-09-12T12:49:56;27.20;99.90
23827;DHT22;12094;50.822;4.376;2023-09-12T12:52:24;27.40;99.90
23827;DHT22;12094;50.822;4.376;2023-09-12T12:55:06;27.60;99.90
23827;DHT22;12094;50.822;4.376;2023-09-12T12:57:39;27.20;99.90
23827;DHT22;12094;50.822;4.376;2023-09-12T13:00:12;27.20;99.90
23827;DHT22;12094;50.822;4.376;2023-09-12T13:02:44;27.50;99.90
23827;DHT22;12094;50.822;4.376;2023-09-12T13:05:24;27.80;99.90
23827;DHT22;12094;50.822;4.376;2023-09-12T13:08:20;27.80;99.90
23827;DHT22;12094;50.822;4.376;2023-09-12T13:11:14;28.00;99.90
23827;DHT22;12094;50.822;4.376;2023-09-12T13:14:04;27.90;99.90
23827;DHT22;12094;50.822;4.376;2023-09-12T13:16:37;27.70;99.90
23827;DHT22;12094;50.822;4.376;2023-09-12T13:19:10;27.60;99.90
23827;DHT22;12094;50.822;4.376;2023-09-12T13:33:55;26.90;99.90
23827;DHT22;12094;50.822;4.376;2023-09-12T13:40:52;26.70;99.90
23827;DHT22;12094;50.822;4.376;2023-09-12T13:43:23;26.50;99.90
23827;DHT22;12094;50.822;4.376;2023-09-12T13:45:53;25.90;99.90
23827;DHT22;12094;50.822;4.376;2023-09-12T13:48:24;25.90;99.90
23827;DHT22;12094;50.822;4.376;2023-09-12T13:50:56;26.10;99.90
23827;DHT22;12094;50.822;4.376;2023-09-12T13:53:24;26.30;99.90
23827;DHT22;12094;50.822;4.376;2023-09-12T13:55:54;26.50;99.90
23827;DHT22;12094;50.822;4.376;2023-09-12T13:58:46;26.50;99.90
23827;DHT22;12094;50.822;4.376;2023-09-12T14:05:17;26.40;99.90
23827;DHT22;12094;50.822;4.376;2023-09-12T14:07:51;26.30;99.90
23827;DHT22;12094;50.822;4.376;2023-09-12T14:10:22;26.30;99.90
23827;DHT22;12094;50.822;4.376;2023-09-12T14:13:02;26.30;99.90
23827;DHT22;12094;50.822;4.376;2023-09-12T14:15:48;26.00;99.90
23827;DHT22;12094;50.822;4.376;2023-09-12T14:18:28;26.10;99.90
23827;DHT22;12094;50.822;4.376;2023-09-12T14:20:58;26.00;99.90
23827;DHT22;12094;50.822;4.376;2023-09-12T14:23:30;26.10;99.90
23827;DHT22;12094;50.822;4.376;2023-09-12T14:25:59;25.90;99.90
23827;DHT22;12094;50.822;4.376;2023-09-12T14:28:26;25.90;99.90
23827;DHT22;12094;50.822;4.376;2023-09-12T14:30:55;25.90;99.90
23827;DHT22;12094;50.822;4.376;2023-09-12T14:33:23;26.00;99.90
23827;DHT22;12094;50.822;4.376;2023-09-12T14:35:50;26.10;99.90
23827;DHT22;12094;50.822;4.376;2023-09-12T14:38:19;26.00;99.90
23827;DHT22;12094;50.822;4.376;2023-09-12T14:40:46;26.00;99.90
23827;DHT22;12094;50.822;4.376;2023-09-12T14:43:16;25.90;99.90
23827;DHT22;12094;50.822;4.376;2023-09-12T14:45:45;25.80;99.90
23827;DHT22;12094;50.822;4.376;2023-09-12T14:48:12;25.80;99.90
23827;DHT22;12094;50.822;4.376;2023-09-12T14:50:39;25.70;99.90
23827;DHT22;12094;50.822;4.376;2023-09-12T14:53:12;25.70;99.90
23827;DHT22;12094;50.822;4.376;2023-09-12T14:55:39;25.50;99.90
23827;DHT22;12094;50.822;4.376;2023-09-12T14:58:07;25.50;99.90
23827;DHT22;12094;50.822;4.376;2023-09-12T15:00:34;25.50;99.90
23827;DHT22;12094;50.822;4.376;2023-09-12T15:03:01;25.40;99.90
23827;DHT22;12094;50.822;4.376;2023-09-12T15:05:28;25.40;99.90
23827;DHT22;12094;50.822;4.376;2023-09-12T15:07:55;25.30;99.90
23827;DHT22;12094;50.822;4.376;2023-09-12T15:10:23;25.30;99.90
23827;DHT22;12094;50.822;4.376;2023-09-12T15:12:50;25.20;99.90
23827;DHT22;12094;50.822;4.376;2023-09-12T15:15:18;25.20;99.90
23827;DHT22;12094;50.822;4.376;2023-09-12T15:17:46;25.20;99.90
23827;DHT22;12094;50.822;4.376;2023-09-12T15:20:15;25.20;99.90
23827;DHT22;12094;50.822;4.376;2023-09-12T15:22:42;25.10;99.90
23827;DHT22;12094;50.822;4.376;2023-09-12T15:25:10;25.00;99.90
23827;DHT22;12094;50.822;4.376;2023-09-12T15:27:39;25.10;99.90
23827;DHT22;12094;50.822;4.376;2023-09-12T15:30:07;25.10;99.90
23827;DHT22;12094;50.822;4.376;2023-09-12T15:32:35;25.20;99.90
23827;DHT22;12094;50.822;4.376;2023-09-12T15:35:02;25.10;99.90
23827;DHT22;12094;50.822;4.376;2023-09-12T15:37:30;25.00;99.90
23827;DHT22;12094;50.822;4.376;2023-09-12T15:39:57;24.80;99.90
23827;DHT22;12094;50.822;4.376;2023-09-12T15:42:25;24.80;99.90
23827;DHT22;12094;50.822;4.376;2023-09-12T15:45:03;24.70;99.90
23827;DHT22;12094;50.822;4.376;2023-09-12T15:47:31;24.70;99.90
23827;DHT22;12094;50.822;4.376;2023-09-12T15:50:03;24.60;99.90
23827;DHT22;12094;50.822;4.376;2023-09-12T15:52:31;24.50;99.90
23827;DHT22;12094;50.822;4.376;2023-09-12T15:55:08;24.50;99.90
23827;DHT22;12094;50.822;4.376;2023-09-12T15:57:37;24.60;99.90
23827;DHT22;12094;50.822;4.376;2023-09-12T16:00:06;24.60;99.90
23827;DHT22;12094;50.822;4.376;2023-09-12T16:02:38;24.60;99.90
23827;DHT22;12094;50.822;4.376;2023-09-12T16:05:07;24.50;99.90
23827;DHT22;12094;50.822;4.376;2023-09-12T16:07:34;24.30;99.90
23827;DHT22;12094;50.822;4.376;2023-09-12T16:10:01;24.30;99.90
23827;DHT22;12094;50.822;4.376;2023-09-12T16:12:29;24.40;99.90
23827;DHT22;12094;50.822;4.376;2023-09-12T16:14:56;24.50;99.90
23827;DHT22;12094;50.822;4.376;2023-09-12T16:17:24;24.50;99.90
23827;DHT22;12094;50.822;4.376;2023-09-12T16:19:51;24.40;99.90
23827;DHT22;12094;50.822;4.376;2023-09-12T16:22:20;24.30;99.90
23827;DHT22;12094;50.822;4.376;2023-09-12T16:24:47;24.20;99.90
23827;DHT22;12094;50.822;4.376;2023-09-12T16:27:17;24.20;99.90
23827;DHT22;12094;50.822;4.376;2023-09-12T16:29:45;24.10;99.90
23827;DHT22;12094;50.822;4.376;2023-09-12T16:32:12;24.00;99.90
23827;DHT22;12094;50.822;4.376;2023-09-12T16:34:39;23.80;99.90
23827;DHT22;12094;50.822;4.376;2023-09-12T16:37:06;23.60;99.90